createdAt,value
2023-05-01T00:01:46.502Z,10.40
2023-05-01T00:04:14.538Z,10.33
2023-05-01T00:06:42.565Z,10.30
2023-05-01T00:09:10.585Z,10.27
2023-05-01T00:11:39.873Z,10.16
2023-05-01T00:14:07.745Z,10.11
2023-05-01T00:16:36.305Z,10.13
2023-05-01T00:19:04.987Z,10.10
2023-05-01T00:21:32.865Z,10.06
2023-05-01T00:24:00.759Z,10.03
2023-05-01T00:26:31.223Z,10.11
2023-05-01T00:29:00.534Z,10.09
2023-05-01T00:31:28.455Z,10.13
2023-05-01T00:33:56.345Z,10.05
2023-05-01T00:36:24.336Z,10.02
2023-05-01T00:38:52.403Z,9.95
2023-05-01T00:41:21.158Z,10.01
2023-05-01T00:43:49.004Z,9.98
2023-05-01T00:46:18.473Z,9.97
2023-05-01T00:48:46.538Z,9.86
2023-05-01T00:51:15.246Z,9.84
2023-05-01T00:53:44.596Z,9.70
2023-05-01T00:56:12.917Z,9.55
2023-05-01T00:58:42.072Z,9.59
2023-05-01T01:01:10.052Z,9.54
2023-05-01T01:03:39.699Z,9.44
2023-05-01T01:06:14.645Z,9.38
2023-05-01T01:08:50.641Z,9.16
2023-05-01T01:11:25.421Z,9.13
2023-05-01T01:13:59.756Z,9.04
2023-05-01T01:16:34.079Z,8.96
2023-05-01T01:19:15.921Z,8.97
2023-05-01T01:21:50.839Z,8.87
2023-05-01T01:24:37.144Z,8.79
2023-05-01T01:27:38.823Z,8.60
2023-05-01T01:30:33.857Z,8.61
2023-05-01T01:33:32.093Z,8.70
2023-05-01T01:36:08.167Z,8.72
2023-05-01T01:38:42.216Z,8.64
2023-05-01T01:41:14.784Z,8.61
2023-05-01T01:43:47.640Z,8.47
2023-05-01T01:46:17.754Z,8.29
2023-05-01T01:48:50.106Z,8.30
2023-05-01T01:51:23.004Z,8.25
2023-05-01T01:53:53.676Z,8.23
2023-05-01T01:56:25.460Z,8.15
2023-05-01T01:58:54.787Z,8.13
2023-05-01T02:01:24.292Z,8.12
2023-05-01T02:03:54.325Z,8.07
2023-05-01T02:06:25.227Z,8.15
2023-05-01T02:08:54.576Z,8.16
2023-05-01T02:11:23.902Z,8.17
2023-05-01T02:13:53.004Z,8.10
2023-05-01T02:16:25.359Z,7.92
2023-05-01T02:18:54.415Z,7.82
2023-05-01T02:21:23.872Z,7.74
2023-05-01T02:23:52.109Z,7.74
2023-05-01T02:26:22.953Z,7.68
2023-05-01T02:28:50.710Z,7.61
2023-05-01T02:31:18.560Z,7.44
2023-05-01T02:33:46.689Z,7.29
2023-05-01T02:36:14.942Z,7.21
2023-05-01T02:38:47.038Z,7.23
2023-05-01T02:41:16.774Z,7.17
2023-05-01T02:43:47.670Z,7.30
2023-05-01T02:46:19.162Z,7.39
2023-05-01T02:48:47.859Z,7.39
2023-05-01T02:51:15.909Z,7.45
2023-05-01T02:53:45.200Z,7.39
2023-05-01T02:56:20.374Z,7.40
2023-05-01T02:58:49.239Z,7.38
2023-05-01T03:01:17.347Z,7.13
2023-05-01T03:03:45.693Z,7.23
2023-05-01T03:06:14.965Z,7.22
2023-05-01T03:08:43.166Z,7.32
2023-05-01T03:11:12.640Z,7.33
2023-05-01T03:13:40.445Z,7.21
2023-05-01T03:16:08.597Z,7.12
2023-05-01T03:18:36.352Z,7.03
2023-05-01T03:21:04.322Z,6.95
2023-05-01T03:23:32.674Z,6.87
2023-05-01T03:26:00.776Z,6.95
2023-05-01T03:28:30.059Z,6.99
2023-05-01T03:30:57.897Z,7.06
2023-05-01T03:33:26.722Z,7.02
2023-05-01T03:36:01.606Z,7.21
2023-05-01T03:38:29.584Z,7.17
2023-05-01T03:41:26.719Z,7.08
2023-05-01T03:44:07.849Z,7.08
2023-05-01T03:46:44.879Z,7.04
2023-05-01T03:49:19.332Z,6.96
2023-05-01T03:51:49.827Z,6.84
2023-05-01T03:54:18.920Z,6.81
2023-05-01T03:57:00.523Z,6.75
2023-05-01T03:59:29.762Z,6.70
2023-05-01T04:01:57.722Z,6.76
2023-05-01T04:04:29.723Z,6.91
2023-05-01T04:06:59.390Z,6.95
2023-05-01T04:09:27.344Z,7.01
2023-05-01T04:11:55.212Z,7.11
2023-05-01T04:14:23.855Z,7.15
2023-05-01T04:16:53.234Z,7.16
2023-05-01T04:19:21.112Z,7.05
2023-05-01T04:21:54.255Z,7.02
2023-05-01T04:24:22.224Z,7.11
2023-05-01T04:26:50.267Z,7.07
2023-05-01T04:29:18.191Z,7.02
2023-05-01T04:31:46.487Z,6.94
2023-05-01T04:34:16.267Z,7.06
2023-05-01T04:36:44.385Z,7.05
2023-05-01T04:39:12.629Z,7.21
2023-05-01T04:41:40.580Z,7.26
2023-05-01T04:44:08.365Z,7.24
2023-05-01T04:46:36.257Z,7.43
2023-05-01T04:49:04.906Z,7.34
2023-05-01T04:51:34.088Z,7.41
2023-05-01T04:54:02.119Z,7.52
2023-05-01T04:56:33.132Z,7.59
2023-05-01T04:59:03.046Z,7.77
2023-05-01T05:01:32.395Z,7.92
2023-05-01T05:04:00.349Z,8.04
2023-05-01T05:06:28.960Z,8.10
2023-05-01T05:08:58.357Z,8.38
2023-05-01T05:11:26.449Z,8.43
2023-05-01T05:13:57.355Z,8.47
2023-05-01T05:16:25.763Z,8.58
2023-05-01T05:18:56.924Z,8.72
2023-05-01T05:21:26.595Z,8.93
2023-05-01T05:23:58.241Z,9.00
2023-05-01T05:26:27.170Z,9.10
2023-05-01T05:28:57.523Z,9.19
2023-05-01T05:31:25.478Z,9.27
2023-05-01T05:33:53.374Z,9.37
2023-05-01T05:36:21.590Z,9.42
2023-05-01T05:38:49.836Z,9.46
2023-05-01T05:41:21.596Z,9.59
2023-05-01T05:43:51.760Z,9.46
2023-05-01T05:46:19.677Z,9.60
2023-05-01T05:48:47.878Z,9.61
2023-05-01T05:51:15.887Z,9.67
2023-05-01T05:53:43.710Z,9.73
2023-05-01T05:56:11.574Z,9.76
2023-05-01T05:58:41.401Z,9.73
2023-05-01T06:01:09.601Z,9.86
2023-05-01T06:03:38.906Z,9.98
2023-05-01T06:06:07.449Z,10.02
2023-05-01T06:08:37.557Z,10.01
2023-05-01T06:11:07.894Z,10.04
2023-05-01T06:13:36.932Z,10.24
2023-05-01T06:16:07.446Z,10.31
2023-05-01T06:18:35.401Z,10.48
2023-05-01T06:21:03.329Z,10.27
2023-05-01T06:23:31.968Z,10.33
2023-05-01T06:26:20.227Z,10.57
2023-05-01T06:28:48.158Z,10.73
2023-05-01T06:31:17.553Z,10.70
2023-05-01T06:33:51.089Z,10.70
2023-05-01T06:36:38.204Z,10.87
2023-05-01T06:39:06.124Z,10.73
2023-05-01T06:41:36.059Z,10.71
2023-05-01T06:44:04.047Z,10.75
2023-05-01T06:46:33.419Z,10.81
2023-05-01T06:49:01.865Z,10.81
2023-05-01T06:51:30.365Z,10.62
2023-05-01T06:53:58.174Z,10.75
2023-05-01T06:56:26.198Z,10.51
2023-05-01T06:58:54.035Z,10.57
2023-05-01T07:01:22.149Z,10.68
2023-05-01T07:03:51.536Z,10.95
2023-05-01T07:06:19.350Z,10.78
2023-05-01T07:08:47.286Z,11.00
2023-05-01T07:11:15.158Z,11.22
2023-05-01T07:13:42.970Z,11.52
2023-05-01T07:16:11.082Z,11.44
2023-05-01T07:18:39.249Z,11.52
2023-05-01T07:21:10.118Z,11.64
2023-05-01T07:23:37.974Z,11.60
2023-05-01T07:26:06.393Z,11.63
2023-05-01T07:28:34.197Z,11.79
2023-05-01T07:31:02.479Z,11.98
2023-05-01T07:33:30.266Z,12.15
2023-05-01T07:35:58.167Z,12.03
2023-05-01T07:38:27.408Z,12.00
2023-05-01T07:40:56.035Z,11.55
2023-05-01T07:43:24.060Z,11.83
2023-05-01T07:46:01.977Z,12.12
2023-05-01T07:48:30.485Z,12.19
2023-05-01T07:50:58.367Z,12.14
2023-05-01T07:53:27.770Z,12.02
2023-05-01T07:55:55.707Z,12.00
2023-05-01T07:58:23.484Z,11.88
2023-05-01T08:00:51.360Z,11.82
2023-05-01T08:03:19.464Z,12.18
2023-05-01T08:05:47.495Z,12.13
2023-05-01T08:08:20.559Z,12.51
2023-05-01T08:10:50.019Z,13.05
2023-05-01T08:13:18.257Z,13.29
2023-05-01T08:15:48.006Z,12.72
2023-05-01T08:18:20.261Z,12.73
2023-05-01T08:20:49.186Z,12.80
2023-05-01T08:23:18.087Z,12.61
2023-05-01T08:25:47.017Z,12.43
2023-05-01T08:28:16.364Z,12.25
2023-05-01T08:30:44.529Z,11.87
2023-05-01T08:33:12.460Z,12.16
2023-05-01T08:35:40.290Z,12.03
2023-05-01T08:38:08.121Z,11.96
2023-05-01T08:40:38.644Z,11.59
2023-05-01T08:43:06.527Z,11.22
2023-05-01T08:45:38.899Z,11.18
2023-05-01T08:48:07.534Z,10.81
2023-05-01T08:50:36.936Z,10.57
2023-05-01T08:53:05.845Z,10.55
2023-05-01T08:55:35.978Z,10.17
2023-05-01T08:58:07.796Z,10.10
2023-05-01T09:00:38.181Z,9.88
2023-05-01T09:03:07.779Z,10.42
2023-05-01T09:05:35.766Z,10.55
2023-05-01T09:08:03.731Z,10.32
2023-05-01T09:10:34.092Z,10.29
2023-05-01T09:13:03.318Z,10.39
2023-05-01T09:15:31.325Z,9.96
2023-05-01T09:18:03.795Z,9.68
2023-05-01T09:20:32.729Z,9.73
2023-05-01T09:23:00.640Z,9.73
2023-05-01T09:25:29.187Z,9.84
2023-05-01T09:27:57.436Z,9.74
2023-05-01T09:30:32.535Z,10.15
2023-05-01T09:33:12.743Z,9.75
2023-05-01T09:35:51.873Z,9.75
2023-05-01T09:38:21.311Z,9.73
2023-05-01T09:40:49.770Z,9.71
2023-05-01T09:43:26.884Z,9.63
2023-05-01T09:46:03.842Z,9.51
2023-05-01T09:48:35.754Z,9.54
2023-05-01T09:51:21.565Z,9.65
2023-05-01T09:53:50.438Z,9.50
2023-05-01T09:56:19.604Z,9.57
2023-05-01T09:58:47.699Z,9.73
2023-05-01T10:01:16.213Z,9.79
2023-05-01T10:03:47.065Z,9.83
2023-05-01T10:06:29.217Z,9.89
2023-05-01T10:08:57.231Z,9.72
2023-05-01T10:11:26.847Z,9.77
2023-05-01T10:14:09.159Z,9.71
2023-05-01T10:16:38.602Z,9.71
2023-05-01T10:19:07.994Z,10.02
2023-05-01T10:21:36.357Z,9.85
2023-05-01T10:24:05.886Z,9.78
2023-05-01T10:26:35.627Z,9.76
2023-05-01T10:29:04.344Z,9.97
2023-05-01T10:31:33.212Z,9.98
2023-05-01T10:34:02.197Z,9.92
2023-05-01T10:36:39.240Z,10.16
2023-05-01T10:39:07.541Z,10.26
2023-05-01T10:42:04.754Z,10.21
2023-05-01T10:44:34.757Z,10.47
2023-05-01T10:47:37.798Z,10.38
2023-05-01T10:50:08.083Z,10.36
2023-05-01T10:53:09.110Z,10.24
2023-05-01T10:55:39.268Z,10.25
2023-05-01T10:58:07.117Z,10.17
2023-05-01T11:00:34.997Z,10.15
2023-05-01T11:03:37.442Z,10.33
2023-05-01T11:06:09.451Z,10.45
2023-05-01T11:08:39.255Z,10.49
2023-05-01T11:11:51.194Z,10.43
2023-05-01T11:14:19.310Z,10.45
2023-05-01T11:16:49.075Z,10.47
2023-05-01T11:19:53.352Z,10.44
2023-05-01T11:22:21.335Z,10.41
2023-05-01T11:24:51.946Z,10.46
2023-05-01T11:27:22.908Z,10.36
2023-05-01T11:29:51.685Z,10.35
2023-05-01T11:32:24.836Z,10.27
2023-05-01T11:34:53.262Z,10.31
2023-05-01T11:37:21.637Z,10.48
2023-05-01T11:39:51.027Z,10.56
2023-05-01T11:42:23.708Z,10.73
2023-05-01T11:45:08.065Z,11.22
2023-05-01T11:47:36.437Z,11.45
2023-05-01T11:50:04.641Z,11.42
2023-05-01T11:52:43.351Z,11.33
2023-05-01T11:55:11.597Z,11.26
2023-05-01T11:57:51.967Z,11.04
2023-05-01T12:00:28.372Z,11.09
2023-05-01T12:02:59.806Z,11.28
2023-05-01T12:05:29.425Z,11.38
2023-05-01T12:08:12.198Z,11.56
2023-05-01T12:10:42.089Z,11.55
2023-05-01T12:13:13.713Z,11.83
2023-05-01T12:15:45.162Z,11.79
2023-05-01T12:18:14.178Z,11.89
2023-05-01T12:20:44.881Z,11.82
2023-05-01T12:23:14.726Z,11.59
2023-05-01T12:25:43.682Z,11.73
2023-05-01T12:28:15.074Z,12.26
2023-05-01T12:30:45.249Z,12.02
2023-05-01T12:33:15.358Z,11.99
2023-05-01T12:35:46.817Z,12.16
2023-05-01T12:38:16.642Z,12.41
2023-05-01T12:40:53.622Z,12.38
2023-05-01T12:43:30.690Z,12.38
2023-05-01T12:45:59.313Z,12.37
2023-05-01T12:48:27.927Z,12.83
2023-05-01T12:50:56.993Z,13.01
2023-05-01T12:53:26.449Z,13.03
2023-05-01T12:55:59.437Z,13.39
2023-05-01T12:58:38.070Z,13.57
2023-05-01T13:01:06.778Z,13.44
2023-05-01T13:03:37.150Z,13.62
2023-05-01T13:06:08.232Z,13.85
2023-05-01T13:08:40.707Z,13.57
2023-05-01T13:11:13.666Z,13.56
2023-05-01T13:13:44.427Z,13.55
2023-05-01T13:16:13.662Z,13.76
2023-05-01T13:18:46.199Z,13.68
2023-05-01T13:21:16.357Z,14.21
2023-05-01T13:23:53.906Z,14.09
2023-05-01T13:26:28.183Z,13.94
2023-05-01T13:28:58.654Z,14.18
2023-05-01T13:31:27.304Z,13.97
2023-05-01T13:33:56.855Z,13.99
2023-05-01T13:36:26.218Z,14.04
2023-05-01T13:38:57.157Z,14.33
2023-05-01T13:41:26.856Z,14.37
2023-05-01T13:43:58.335Z,14.27
2023-05-01T13:46:28.030Z,14.05
2023-05-01T13:48:56.456Z,14.19
2023-05-01T13:51:25.632Z,13.99
2023-05-01T13:53:54.452Z,14.17
2023-05-01T13:56:22.610Z,14.36
2023-05-01T13:58:51.217Z,14.67
2023-05-01T14:01:22.556Z,14.91
2023-05-01T14:03:51.311Z,14.59
2023-05-01T14:06:23.786Z,14.39
2023-05-01T14:08:54.223Z,13.99
2023-05-01T14:11:22.063Z,14.30
2023-05-01T14:13:51.973Z,14.51
2023-05-01T14:16:25.933Z,14.56
2023-05-01T14:18:56.898Z,14.61
2023-05-01T14:21:27.968Z,14.22
2023-05-01T14:23:58.415Z,14.52
2023-05-01T14:26:26.752Z,14.60
2023-05-01T14:28:54.719Z,14.57
2023-05-01T14:31:28.853Z,14.39
2023-05-01T14:33:58.490Z,14.39
2023-05-01T14:36:28.423Z,14.38
2023-05-01T14:38:58.084Z,14.47
2023-05-01T14:41:26.183Z,14.02
2023-05-01T14:43:54.576Z,14.07
2023-05-01T14:46:30.163Z,14.19
2023-05-01T14:48:58.880Z,14.42
2023-05-01T14:51:27.283Z,14.08
2023-05-01T14:53:55.533Z,14.47
2023-05-01T14:56:23.950Z,14.60
2023-05-01T14:58:51.840Z,14.58
2023-05-01T15:01:20.812Z,14.48
2023-05-01T15:03:50.129Z,14.34
2023-05-01T15:06:18.244Z,14.45
2023-05-01T15:08:46.827Z,14.42
2023-05-01T15:11:15.418Z,14.17
2023-05-01T15:13:44.279Z,14.05
2023-05-01T15:16:12.163Z,13.82
2023-05-01T15:18:40.588Z,13.64
2023-05-01T15:21:09.828Z,13.50
2023-05-01T15:23:38.074Z,13.70
2023-05-01T15:26:06.070Z,13.58
2023-05-01T15:28:34.002Z,13.51
2023-05-01T15:31:02.221Z,13.60
2023-05-01T15:33:30.251Z,13.37
2023-05-01T15:35:58.106Z,13.23
2023-05-01T15:38:28.232Z,13.30
2023-05-01T15:40:56.255Z,13.35
2023-05-01T15:43:24.328Z,13.18
2023-05-01T15:45:52.905Z,13.22
2023-05-01T15:48:20.911Z,13.30
2023-05-01T15:50:52.125Z,13.12
2023-05-01T15:53:21.289Z,13.13
2023-05-01T15:55:51.584Z,13.10
2023-05-01T15:58:19.494Z,12.99
2023-05-01T16:00:49.527Z,12.94
2023-05-01T16:03:18.079Z,12.77
2023-05-01T16:05:47.043Z,12.64
2023-05-01T16:08:15.605Z,12.55
2023-05-01T16:10:43.390Z,12.43
2023-05-01T16:13:12.788Z,12.42
2023-05-01T16:15:40.702Z,12.31
2023-05-01T16:18:09.749Z,12.28
2023-05-01T16:20:43.968Z,12.30
2023-05-01T16:23:12.765Z,12.17
2023-05-01T16:25:43.437Z,12.12
2023-05-01T16:28:12.934Z,11.98
2023-05-01T16:30:42.558Z,11.92
2023-05-01T16:33:18.711Z,11.85
2023-05-01T16:35:48.425Z,11.79
2023-05-01T16:38:16.551Z,11.71
2023-05-01T16:40:44.683Z,11.64
2023-05-01T16:43:13.998Z,11.60
2023-05-01T16:45:41.967Z,11.54
2023-05-01T16:48:10.080Z,11.50
2023-05-01T16:50:41.551Z,11.56
2023-05-01T16:53:09.372Z,11.59
2023-05-01T16:55:37.614Z,11.57
2023-05-01T16:58:06.808Z,11.56
2023-05-01T17:00:36.181Z,11.48
2023-05-01T17:03:04.215Z,11.55
2023-05-01T17:05:32.243Z,11.47
2023-05-01T17:08:03.526Z,11.51
2023-05-01T17:10:31.590Z,11.51
2023-05-01T17:12:59.441Z,11.48
2023-05-01T17:15:27.819Z,11.46
2023-05-01T17:17:57.174Z,11.44
2023-05-01T17:20:24.996Z,11.39
2023-05-01T17:22:53.051Z,11.35
2023-05-01T17:25:21.080Z,11.30
2023-05-01T17:27:48.923Z,11.23
2023-05-01T17:30:18.457Z,11.21
2023-05-01T17:32:46.429Z,11.12
2023-05-01T17:35:16.828Z,11.15
2023-05-01T17:37:44.979Z,11.19
2023-05-01T17:40:13.307Z,11.21
2023-05-01T17:42:41.893Z,11.19
2023-05-01T17:45:10.508Z,11.21
2023-05-01T17:47:41.559Z,11.15
2023-05-01T17:50:12.301Z,11.14
2023-05-01T17:52:43.312Z,11.10
2023-05-01T17:55:11.501Z,11.07
2023-05-01T17:57:39.881Z,11.04
2023-05-01T18:00:09.340Z,11.04
2023-05-01T18:02:47.782Z,11.07
2023-05-01T18:05:16.310Z,11.05
2023-05-01T18:07:45.508Z,11.01
2023-05-01T18:10:13.274Z,11.04
2023-05-01T18:12:41.165Z,11.04
2023-05-01T18:15:10.195Z,11.00
2023-05-01T18:17:37.969Z,10.94
2023-05-01T18:20:06.754Z,10.96
2023-05-01T18:22:34.542Z,10.81
2023-05-01T18:25:03.786Z,10.83
2023-05-01T18:27:31.647Z,10.79
2023-05-01T18:29:59.724Z,10.79
2023-05-01T18:32:36.042Z,10.82
2023-05-01T18:35:14.216Z,10.79
2023-05-01T18:37:42.482Z,10.73
2023-05-01T18:40:13.939Z,10.74
2023-05-01T18:42:42.690Z,10.73
2023-05-01T18:45:11.107Z,10.60
2023-05-01T18:47:39.306Z,10.65
2023-05-01T18:50:08.597Z,10.61
2023-05-01T18:52:37.224Z,10.64
2023-05-01T18:55:05.741Z,10.71
2023-05-01T18:57:36.020Z,10.62
2023-05-01T19:00:29.625Z,10.61
2023-05-01T19:02:57.516Z,10.59
2023-05-01T19:05:25.738Z,10.51
2023-05-01T19:07:55.119Z,10.46
2023-05-01T19:10:22.940Z,10.43
2023-05-01T19:12:52.096Z,10.40
2023-05-01T19:15:19.998Z,10.43
2023-05-01T19:17:47.824Z,10.38
2023-05-01T19:20:15.887Z,10.37
2023-05-01T19:22:43.663Z,10.38
2023-05-01T19:25:11.470Z,10.33
2023-05-01T19:27:39.298Z,10.30
2023-05-01T19:30:09.780Z,10.31
2023-05-01T19:32:37.573Z,10.30
2023-05-01T19:35:06.380Z,10.25
2023-05-01T19:37:34.195Z,10.23
2023-05-01T19:40:02.163Z,10.23
2023-05-01T19:42:31.211Z,10.25
2023-05-01T19:44:59.207Z,10.32
2023-05-01T19:47:28.543Z,10.31
2023-05-01T19:49:56.494Z,10.35
2023-05-01T19:52:24.717Z,10.30
2023-05-01T19:54:52.483Z,10.28
2023-05-01T19:57:20.253Z,10.27
2023-05-01T19:59:48.480Z,10.22
2023-05-01T20:02:16.307Z,10.15
2023-05-01T20:04:45.641Z,10.20
2023-05-01T20:07:13.586Z,10.17
2023-05-01T20:09:44.258Z,10.03
2023-05-01T20:12:12.080Z,10.03
2023-05-01T20:14:39.981Z,9.97
2023-05-01T20:17:09.327Z,9.99
2023-05-01T20:19:39.415Z,9.90
2023-05-01T20:22:09.970Z,9.81
2023-05-01T20:24:37.809Z,9.79
2023-05-01T20:27:05.795Z,9.82
2023-05-01T20:29:33.678Z,9.88
2023-05-01T20:32:01.702Z,9.87
2023-05-01T20:34:29.689Z,9.81
2023-05-01T20:36:57.747Z,9.83
2023-05-01T20:39:26.969Z,9.84
2023-05-01T20:41:54.795Z,9.80
2023-05-01T20:44:24.813Z,9.81
2023-05-01T20:46:53.103Z,9.66
2023-05-01T20:49:21.494Z,9.71
2023-05-01T20:51:49.533Z,9.77
2023-05-01T20:54:17.366Z,9.89
2023-05-01T20:56:46.484Z,9.75
2023-05-01T20:59:14.672Z,9.88
2023-05-01T21:01:42.542Z,10.04
2023-05-01T21:04:10.698Z,10.04
2023-05-01T21:06:38.780Z,9.95
2023-05-01T21:09:08.665Z,9.82
2023-05-01T21:11:40.701Z,10.12
2023-05-01T21:14:09.984Z,10.05
2023-05-01T21:16:38.314Z,10.16
2023-05-01T21:19:06.868Z,10.44
2023-05-01T21:21:37.132Z,10.28
2023-05-01T21:24:06.229Z,10.44
2023-05-01T21:26:34.301Z,10.33
2023-05-01T21:29:02.095Z,10.54
2023-05-01T21:31:33.397Z,10.56
2023-05-01T21:34:03.388Z,10.61
2023-05-01T21:36:31.231Z,10.48
2023-05-01T21:39:01.139Z,10.58
2023-05-01T21:41:28.973Z,10.51
2023-05-01T21:43:56.725Z,10.48
2023-05-01T21:46:24.785Z,10.49
2023-05-01T21:48:54.270Z,10.30
2023-05-01T21:51:27.017Z,10.30
2023-05-01T21:53:55.318Z,10.41
2023-05-01T21:56:23.547Z,10.33
2023-05-01T21:58:51.799Z,10.33
2023-05-01T22:01:23.275Z,10.36
2023-05-01T22:04:04.255Z,10.49
2023-05-01T22:06:33.709Z,10.59
2023-05-01T22:09:01.636Z,10.61
2023-05-01T22:11:29.465Z,10.46
2023-05-01T22:13:58.259Z,10.38
2023-05-01T22:16:29.260Z,10.30
2023-05-01T22:18:57.586Z,10.34
2023-05-01T22:21:25.524Z,10.23
2023-05-01T22:23:55.417Z,10.15
2023-05-01T22:26:23.682Z,10.20
2023-05-01T22:28:51.637Z,10.07
2023-05-01T22:31:19.499Z,10.03
2023-05-01T22:33:48.024Z,10.05
2023-05-01T22:36:15.946Z,9.95
2023-05-01T22:38:43.767Z,10.04
2023-05-01T22:41:12.940Z,10.17
2023-05-01T22:43:40.796Z,10.18
2023-05-01T22:46:08.776Z,9.84
2023-05-01T22:48:36.596Z,9.87
2023-05-01T22:51:04.439Z,10.64
2023-05-01T22:53:32.458Z,11.93
2023-05-01T22:56:00.689Z,12.34
2023-05-01T22:58:30.141Z,12.63
2023-05-01T23:00:57.941Z,12.51
2023-05-01T23:03:26.003Z,12.82
2023-05-01T23:05:54.018Z,12.57
2023-05-01T23:08:21.961Z,12.26
2023-05-01T23:10:50.036Z,12.83
2023-05-01T23:13:19.941Z,12.78
2023-05-01T23:15:50.008Z,12.97
2023-05-01T23:18:23.535Z,13.44
2023-05-01T23:20:52.482Z,13.17
2023-05-01T23:23:21.387Z,12.71
2023-05-01T23:25:50.631Z,12.40
2023-05-01T23:28:23.783Z,12.24
2023-05-01T23:30:55.988Z,11.99
2023-05-01T23:33:26.177Z,12.29
2023-05-01T23:35:54.311Z,12.37
2023-05-01T23:38:22.167Z,12.26
2023-05-01T23:40:50.104Z,11.32
2023-05-01T23:43:18.705Z,10.81
2023-05-01T23:45:46.972Z,10.47
2023-05-01T23:48:16.384Z,10.19
2023-05-01T23:50:44.339Z,9.86
2023-05-01T23:53:12.187Z,9.96
2023-05-01T23:55:40.076Z,9.93
2023-05-01T23:58:07.867Z,9.82
